Port Imperial New Jersey — WBR3133 — position and weather

sailwx.info

Track history (hours):
 
Tides and Currents Weather Stations Pressure Air Temp Water Temp Dewpoint Dewpoint Depression Visibility Wind Speed Wind Dir Waves Ship Positions

Port Imperial New Jersey

Owner: PORT IMPERIAL FERRY CORP, WEEHAWKEN, NJ. More information available from US FCC via Universal Licensing System and Coast Guard Vessel Documentation Center.

Last reported at 2015-Mar-27 23:09 UTC. Time now 2015-Mar-29 12:32 UTC.
Position N 40°46' W 074°01'.

Length 31 m.

Type: Passenger vessel. MMSI: 366990550.

Date/timePositionNaut miles runAvg speedWind from/ knotsBaromVisibWave heightAir tempDewpointWater temp
2015-Mar-27 23:09N 40°46' W 074°01'2 4.1
2015-Mar-27 22:33N 40°44' W 074°01'0 0.0
2015-Mar-27 21:33N 40°44' W 074°01'0 0.1
2015-Mar-27 20:33N 40°43' W 074°01'2 2.1
2015-Mar-27 19:33N 40°46' W 074°01'3 0.2
2015-Mar-26 23:24N 40°49' W 073°59'3 3.7
2015-Mar-26 22:34N 40°46' W 074°00'2 1.9
2015-Mar-26 21:33N 40°44' W 074°02'2 1.8
2015-Mar-26 20:33N 40°46' W 074°00'  
Track history (hours):
 
Tides and Currents Weather Stations Pressure Air Temp Water Temp Dewpoint Dewpoint Depression Visibility Wind Speed Wind Dir Waves Ship Positions

Port Imperial New Jersey

Owner: PORT IMPERIAL FERRY CORP, WEEHAWKEN, NJ. More information available from US FCC via Universal Licensing System and Coast Guard Vessel Documentation Center.

Last reported at 2015-Mar-27 23:09 UTC. Time now 2015-Mar-29 12:32 UTC.
Position N 40°46' W 074°01'.

Length 31 m.

Type: Passenger vessel. MMSI: 366990550.

Date/timePositionNaut miles runAvg speedWind from/ knotsBaromVisibWave heightAir tempDewpointWater temp
2015-Mar-27 23:09N 40°46' W 074°01'2 4.1
2015-Mar-27 22:33N 40°44' W 074°01'0 0.0
2015-Mar-27 21:33N 40°44' W 074°01'0 0.1
2015-Mar-27 20:33N 40°43' W 074°01'2 2.1
2015-Mar-27 19:33N 40°46' W 074°01'3 0.2
2015-Mar-26 23:24N 40°49' W 073°59'3 3.7
2015-Mar-26 22:34N 40°46' W 074°00'2 1.9
2015-Mar-26 21:33N 40°44' W 074°02'2 1.8
2015-Mar-26 20:33N 40°46' W 074°00'  

Dump ship's entire track history